sensor_id;sensor_type;location;lat;lon;timestamp;P1;durP1;ratioP1;P2;durP2;ratioP2
20456;SDS011;10387;51.102;6.848;2023-03-07T00:01:45;15.17;;;11.13;;
20456;SDS011;10387;51.102;6.848;2023-03-07T00:04:11;15.90;;;11.40;;
20456;SDS011;10387;51.102;6.848;2023-03-07T00:06:36;15.83;;;11.17;;
20456;SDS011;10387;51.102;6.848;2023-03-07T00:09:02;15.63;;;10.50;;
20456;SDS011;10387;51.102;6.848;2023-03-07T00:11:28;14.33;;;9.80;;
20456;SDS011;10387;51.102;6.848;2023-03-07T00:13:53;15.47;;;11.63;;
20456;SDS011;10387;51.102;6.848;2023-03-07T00:16:20;13.93;;;10.00;;
20456;SDS011;10387;51.102;6.848;2023-03-07T00:18:47;15.13;;;10.30;;
20456;SDS011;10387;51.102;6.848;2023-03-07T00:21:15;13.53;;;9.60;;
20456;SDS011;10387;51.102;6.848;2023-03-07T00:23:42;13.10;;;9.90;;
20456;SDS011;10387;51.102;6.848;2023-03-07T00:26:16;13.50;;;10.03;;
20456;SDS011;10387;51.102;6.848;2023-03-07T00:28:44;13.60;;;10.10;;
20456;SDS011;10387;51.102;6.848;2023-03-07T00:31:11;13.50;;;10.57;;
20456;SDS011;10387;51.102;6.848;2023-03-07T00:33:37;12.93;;;8.57;;
20456;SDS011;10387;51.102;6.848;2023-03-07T00:36:13;14.03;;;9.63;;
20456;SDS011;10387;51.102;6.848;2023-03-07T00:38:44;12.73;;;9.43;;
20456;SDS011;10387;51.102;6.848;2023-03-07T00:41:11;12.33;;;8.93;;
20456;SDS011;10387;51.102;6.848;2023-03-07T00:43:39;13.27;;;9.23;;
20456;SDS011;10387;51.102;6.848;2023-03-07T00:46:06;11.93;;;9.10;;
20456;SDS011;10387;51.102;6.848;2023-03-07T00:48:33;13.70;;;9.23;;
20456;SDS011;10387;51.102;6.848;2023-03-07T00:51:00;13.63;;;9.33;;
20456;SDS011;10387;51.102;6.848;2023-03-07T00:53:26;11.97;;;9.50;;
20456;SDS011;10387;51.102;6.848;2023-03-07T00:58:26;13.50;;;10.07;;
20456;SDS011;10387;51.102;6.848;2023-03-07T01:00:53;13.43;;;9.03;;
20456;SDS011;10387;51.102;6.848;2023-03-07T01:03:19;13.63;;;9.63;;
20456;SDS011;10387;51.102;6.848;2023-03-07T01:05:46;13.57;;;9.80;;
20456;SDS011;10387;51.102;6.848;2023-03-07T01:08:12;11.20;;;9.03;;
20456;SDS011;10387;51.102;6.848;2023-03-07T01:10:38;13.50;;;9.57;;
20456;SDS011;10387;51.102;6.848;2023-03-07T01:13:05;15.33;;;9.93;;
20456;SDS011;10387;51.102;6.848;2023-03-07T01:15:30;13.97;;;9.97;;
20456;SDS011;10387;51.102;6.848;2023-03-07T01:17:56;13.63;;;9.80;;
20456;SDS011;10387;51.102;6.848;2023-03-07T01:20:22;14.00;;;10.60;;
20456;SDS011;10387;51.102;6.848;2023-03-07T01:22:48;14.77;;;10.33;;
20456;SDS011;10387;51.102;6.848;2023-03-07T01:25:14;15.30;;;10.47;;
20456;SDS011;10387;51.102;6.848;2023-03-07T01:27:40;13.47;;;10.43;;
20456;SDS011;10387;51.102;6.848;2023-03-07T01:30:06;14.43;;;10.33;;
20456;SDS011;10387;51.102;6.848;2023-03-07T01:32:35;15.77;;;12.00;;
20456;SDS011;10387;51.102;6.848;2023-03-07T01:35:02;15.40;;;11.37;;
20456;SDS011;10387;51.102;6.848;2023-03-07T01:37:28;18.53;;;12.00;;
20456;SDS011;10387;51.102;6.848;2023-03-07T01:39:54;17.43;;;12.63;;
20456;SDS011;10387;51.102;6.848;2023-03-07T01:42:20;16.50;;;11.83;;
20456;SDS011;10387;51.102;6.848;2023-03-07T01:47:22;17.87;;;12.33;;
20456;SDS011;10387;51.102;6.848;2023-03-07T01:49:51;19.53;;;13.30;;
20456;SDS011;10387;51.102;6.848;2023-03-07T01:52:19;17.40;;;12.60;;
20456;SDS011;10387;51.102;6.848;2023-03-07T01:54:57;16.90;;;11.77;;
20456;SDS011;10387;51.102;6.848;2023-03-07T01:57:28;14.23;;;11.23;;
20456;SDS011;10387;51.102;6.848;2023-03-07T01:59:58;15.20;;;11.23;;
20456;SDS011;10387;51.102;6.848;2023-03-07T02:02:38;15.30;;;11.50;;
20456;SDS011;10387;51.102;6.848;2023-03-07T02:05:12;16.10;;;11.73;;
20456;SDS011;10387;51.102;6.848;2023-03-07T02:07:47;17.77;;;12.57;;
20456;SDS011;10387;51.102;6.848;2023-03-07T02:10:19;17.00;;;12.47;;
20456;SDS011;10387;51.102;6.848;2023-03-07T02:12:46;16.23;;;11.90;;
20456;SDS011;10387;51.102;6.848;2023-03-07T02:15:13;16.87;;;10.90;;
20456;SDS011;10387;51.102;6.848;2023-03-07T02:17:39;17.83;;;13.60;;
20456;SDS011;10387;51.102;6.848;2023-03-07T02:23:02;14.93;;;10.93;;
20456;SDS011;10387;51.102;6.848;2023-03-07T02:25:35;14.20;;;10.90;;
20456;SDS011;10387;51.102;6.848;2023-03-07T02:28:24;16.17;;;11.57;;
20456;SDS011;10387;51.102;6.848;2023-03-07T02:31:12;16.17;;;11.03;;
20456;SDS011;10387;51.102;6.848;2023-03-07T02:33:38;12.60;;;10.17;;
20456;SDS011;10387;51.102;6.848;2023-03-07T02:36:08;13.63;;;10.57;;
20456;SDS011;10387;51.102;6.848;2023-03-07T02:38:45;13.83;;;11.57;;
20456;SDS011;10387;51.102;6.848;2023-03-07T02:41:13;13.60;;;10.67;;
20456;SDS011;10387;51.102;6.848;2023-03-07T02:43:43;15.97;;;11.40;;
20456;SDS011;10387;51.102;6.848;2023-03-07T02:46:09;15.93;;;12.43;;
20456;SDS011;10387;51.102;6.848;2023-03-07T02:48:35;15.13;;;11.50;;
20456;SDS011;10387;51.102;6.848;2023-03-07T02:51:01;17.93;;;13.37;;
20456;SDS011;10387;51.102;6.848;2023-03-07T02:53:26;19.33;;;14.93;;
20456;SDS011;10387;51.102;6.848;2023-03-07T02:55:52;20.57;;;15.13;;
20456;SDS011;10387;51.102;6.848;2023-03-07T02:58:18;20.10;;;14.90;;
20456;SDS011;10387;51.102;6.848;2023-03-07T03:00:44;21.30;;;15.97;;
20456;SDS011;10387;51.102;6.848;2023-03-07T03:03:09;21.57;;;15.63;;
20456;SDS011;10387;51.102;6.848;2023-03-07T03:05:36;23.40;;;16.07;;
20456;SDS011;10387;51.102;6.848;2023-03-07T03:08:02;19.30;;;15.27;;
20456;SDS011;10387;51.102;6.848;2023-03-07T03:10:29;18.23;;;13.57;;
20456;SDS011;10387;51.102;6.848;2023-03-07T03:12:56;16.87;;;12.43;;
20456;SDS011;10387;51.102;6.848;2023-03-07T03:15:22;19.93;;;12.70;;
20456;SDS011;10387;51.102;6.848;2023-03-07T03:17:47;14.70;;;11.67;;
20456;SDS011;10387;51.102;6.848;2023-03-07T03:20:13;18.13;;;13.27;;
20456;SDS011;10387;51.102;6.848;2023-03-07T03:22:41;16.33;;;11.77;;
20456;SDS011;10387;51.102;6.848;2023-03-07T03:25:08;16.03;;;11.63;;
20456;SDS011;10387;51.102;6.848;2023-03-07T03:27:38;13.13;;;11.10;;
20456;SDS011;10387;51.102;6.848;2023-03-07T03:30:04;13.93;;;11.27;;
20456;SDS011;10387;51.102;6.848;2023-03-07T03:32:33;13.07;;;9.00;;
20456;SDS011;10387;51.102;6.848;2023-03-07T03:35:00;14.17;;;10.00;;
20456;SDS011;10387;51.102;6.848;2023-03-07T03:37:26;11.97;;;10.10;;
20456;SDS011;10387;51.102;6.848;2023-03-07T03:39:53;14.17;;;10.80;;
20456;SDS011;10387;51.102;6.848;2023-03-07T03:42:19;11.23;;;8.93;;
20456;SDS011;10387;51.102;6.848;2023-03-07T03:44:46;13.23;;;9.97;;
20456;SDS011;10387;51.102;6.848;2023-03-07T03:47:12;13.43;;;9.77;;
20456;SDS011;10387;51.102;6.848;2023-03-07T03:49:38;13.03;;;10.33;;
20456;SDS011;10387;51.102;6.848;2023-03-07T03:52:04;14.53;;;10.27;;
20456;SDS011;10387;51.102;6.848;2023-03-07T03:54:30;13.03;;;9.77;;
20456;SDS011;10387;51.102;6.848;2023-03-07T03:56:56;14.47;;;10.43;;
20456;SDS011;10387;51.102;6.848;2023-03-07T03:59:22;13.57;;;10.60;;
20456;SDS011;10387;51.102;6.848;2023-03-07T04:01:48;13.33;;;9.80;;
20456;SDS011;10387;51.102;6.848;2023-03-07T04:04:16;12.67;;;9.70;;
20456;SDS011;10387;51.102;6.848;2023-03-07T04:06:43;11.47;;;9.73;;
20456;SDS011;10387;51.102;6.848;2023-03-07T04:09:09;12.37;;;9.23;;
20456;SDS011;10387;51.102;6.848;2023-03-07T04:11:39;11.57;;;9.07;;
20456;SDS011;10387;51.102;6.848;2023-03-07T04:14:04;12.20;;;9.13;;
20456;SDS011;10387;51.102;6.848;2023-03-07T04:16:32;11.40;;;8.87;;
20456;SDS011;10387;51.102;6.848;2023-03-07T04:18:58;13.37;;;9.63;;
20456;SDS011;10387;51.102;6.848;2023-03-07T04:21:24;11.70;;;9.00;;
20456;SDS011;10387;51.102;6.848;2023-03-07T04:23:52;12.87;;;9.83;;
20456;SDS011;10387;51.102;6.848;2023-03-07T04:26:23;12.37;;;9.37;;
20456;SDS011;10387;51.102;6.848;2023-03-07T04:28:49;15.30;;;10.57;;
20456;SDS011;10387;51.102;6.848;2023-03-07T04:31:20;12.20;;;9.60;;
20456;SDS011;10387;51.102;6.848;2023-03-07T04:33:48;13.37;;;10.50;;
20456;SDS011;10387;51.102;6.848;2023-03-07T04:36:15;14.53;;;10.33;;
20456;SDS011;10387;51.102;6.848;2023-03-07T04:38:42;15.33;;;10.07;;
20456;SDS011;10387;51.102;6.848;2023-03-07T04:41:16;13.07;;;10.40;;
20456;SDS011;10387;51.102;6.848;2023-03-07T04:43:44;14.50;;;10.70;;
20456;SDS011;10387;51.102;6.848;2023-03-07T04:46:11;15.23;;;11.43;;
20456;SDS011;10387;51.102;6.848;2023-03-07T04:48:39;14.70;;;11.17;;
20456;SDS011;10387;51.102;6.848;2023-03-07T04:51:04;15.30;;;10.97;;
20456;SDS011;10387;51.102;6.848;2023-03-07T04:53:30;15.00;;;11.53;;
20456;SDS011;10387;51.102;6.848;2023-03-07T04:55:57;15.70;;;11.93;;
20456;SDS011;10387;51.102;6.848;2023-03-07T04:58:24;15.73;;;11.20;;
20456;SDS011;10387;51.102;6.848;2023-03-07T05:00:50;12.90;;;10.97;;
20456;SDS011;10387;51.102;6.848;2023-03-07T05:03:16;14.97;;;11.27;;
20456;SDS011;10387;51.102;6.848;2023-03-07T05:05:41;15.17;;;11.20;;
20456;SDS011;10387;51.102;6.848;2023-03-07T05:08:07;15.97;;;11.40;;
20456;SDS011;10387;51.102;6.848;2023-03-07T05:10:33;14.77;;;11.87;;
20456;SDS011;10387;51.102;6.848;2023-03-07T05:13:02;15.57;;;11.43;;
20456;SDS011;10387;51.102;6.848;2023-03-07T05:15:28;14.30;;;11.23;;
20456;SDS011;10387;51.102;6.848;2023-03-07T05:17:54;14.97;;;11.50;;
20456;SDS011;10387;51.102;6.848;2023-03-07T05:20:20;14.97;;;11.60;;
20456;SDS011;10387;51.102;6.848;2023-03-07T05:22:46;14.93;;;10.63;;
20456;SDS011;10387;51.102;6.848;2023-03-07T05:25:12;16.80;;;12.40;;
20456;SDS011;10387;51.102;6.848;2023-03-07T05:27:39;13.60;;;10.97;;
20456;SDS011;10387;51.102;6.848;2023-03-07T05:30:05;16.87;;;12.10;;
20456;SDS011;10387;51.102;6.848;2023-03-07T05:32:31;15.13;;;11.50;;
20456;SDS011;10387;51.102;6.848;2023-03-07T05:34:57;16.23;;;11.27;;
20456;SDS011;10387;51.102;6.848;2023-03-07T05:37:24;15.77;;;11.20;;
20456;SDS011;10387;51.102;6.848;2023-03-07T05:39:57;16.23;;;12.33;;
20456;SDS011;10387;51.102;6.848;2023-03-07T05:46:08;16.30;;;11.80;;
20456;SDS011;10387;51.102;6.848;2023-03-07T05:49:06;13.10;;;10.77;;
20456;SDS011;10387;51.102;6.848;2023-03-07T05:51:32;15.83;;;11.97;;
20456;SDS011;10387;51.102;6.848;2023-03-07T05:53:57;15.70;;;11.33;;
20456;SDS011;10387;51.102;6.848;2023-03-07T05:56:23;14.47;;;12.00;;
20456;SDS011;10387;51.102;6.848;2023-03-07T05:58:49;16.33;;;12.17;;
20456;SDS011;10387;51.102;6.848;2023-03-07T06:01:15;14.27;;;11.50;;
20456;SDS011;10387;51.102;6.848;2023-03-07T06:03:41;16.43;;;12.07;;
20456;SDS011;10387;51.102;6.848;2023-03-07T06:06:08;17.33;;;12.67;;
20456;SDS011;10387;51.102;6.848;2023-03-07T06:08:34;16.33;;;11.97;;
20456;SDS011;10387;51.102;6.848;2023-03-07T06:11:01;15.43;;;11.80;;
20456;SDS011;10387;51.102;6.848;2023-03-07T06:13:27;16.40;;;12.37;;
20456;SDS011;10387;51.102;6.848;2023-03-07T06:15:55;18.33;;;13.77;;
20456;SDS011;10387;51.102;6.848;2023-03-07T06:18:22;15.73;;;11.83;;
20456;SDS011;10387;51.102;6.848;2023-03-07T06:20:53;18.73;;;12.60;;
20456;SDS011;10387;51.102;6.848;2023-03-07T06:23:21;16.30;;;12.00;;
20456;SDS011;10387;51.102;6.848;2023-03-07T06:25:47;16.43;;;12.23;;
20456;SDS011;10387;51.102;6.848;2023-03-07T06:28:13;16.23;;;11.80;;
20456;SDS011;10387;51.102;6.848;2023-03-07T06:30:38;17.53;;;12.37;;
20456;SDS011;10387;51.102;6.848;2023-03-07T06:33:04;18.07;;;12.70;;
20456;SDS011;10387;51.102;6.848;2023-03-07T06:35:30;18.77;;;12.93;;
20456;SDS011;10387;51.102;6.848;2023-03-07T06:37:56;16.13;;;13.00;;
20456;SDS011;10387;51.102;6.848;2023-03-07T06:40:22;16.50;;;12.37;;
20456;SDS011;10387;51.102;6.848;2023-03-07T06:42:48;18.00;;;13.70;;
20456;SDS011;10387;51.102;6.848;2023-03-07T06:45:14;19.07;;;12.50;;
20456;SDS011;10387;51.102;6.848;2023-03-07T06:47:40;16.13;;;11.63;;
20456;SDS011;10387;51.102;6.848;2023-03-07T06:50:08;16.93;;;12.93;;
20456;SDS011;10387;51.102;6.848;2023-03-07T06:52:34;17.57;;;12.57;;
20456;SDS011;10387;51.102;6.848;2023-03-07T06:55:00;19.40;;;13.40;;
20456;SDS011;10387;51.102;6.848;2023-03-07T06:57:27;17.70;;;12.57;;
20456;SDS011;10387;51.102;6.848;2023-03-07T06:59:53;16.30;;;12.57;;
20456;SDS011;10387;51.102;6.848;2023-03-07T07:02:19;16.30;;;12.27;;
20456;SDS011;10387;51.102;6.848;2023-03-07T07:04:45;18.10;;;11.77;;
20456;SDS011;10387;51.102;6.848;2023-03-07T07:07:11;18.23;;;12.57;;
20456;SDS011;10387;51.102;6.848;2023-03-07T07:09:37;19.47;;;12.93;;
20456;SDS011;10387;51.102;6.848;2023-03-07T07:12:03;18.47;;;14.47;;
20456;SDS011;10387;51.102;6.848;2023-03-07T07:14:30;19.50;;;13.77;;
20456;SDS011;10387;51.102;6.848;2023-03-07T07:16:58;19.87;;;13.73;;
20456;SDS011;10387;51.102;6.848;2023-03-07T07:19:25;18.80;;;13.17;;
20456;SDS011;10387;51.102;6.848;2023-03-07T07:21:51;17.43;;;13.10;;
20456;SDS011;10387;51.102;6.848;2023-03-07T07:24:17;17.13;;;12.60;;
20456;SDS011;10387;51.102;6.848;2023-03-07T07:26:44;19.20;;;13.30;;
20456;SDS011;10387;51.102;6.848;2023-03-07T07:29:10;16.63;;;12.33;;
20456;SDS011;10387;51.102;6.848;2023-03-07T07:31:36;19.20;;;13.07;;
20456;SDS011;10387;51.102;6.848;2023-03-07T07:34:02;15.43;;;11.97;;
20456;SDS011;10387;51.102;6.848;2023-03-07T07:36:30;17.90;;;13.03;;
20456;SDS011;10387;51.102;6.848;2023-03-07T07:38:56;16.17;;;12.53;;
20456;SDS011;10387;51.102;6.848;2023-03-07T07:41:22;17.53;;;12.03;;
20456;SDS011;10387;51.102;6.848;2023-03-07T07:43:52;18.33;;;12.47;;
20456;SDS011;10387;51.102;6.848;2023-03-07T07:46:26;15.77;;;11.50;;
20456;SDS011;10387;51.102;6.848;2023-03-07T07:48:53;18.47;;;12.63;;
20456;SDS011;10387;51.102;6.848;2023-03-07T07:51:19;16.63;;;12.27;;
20456;SDS011;10387;51.102;6.848;2023-03-07T07:53:45;16.07;;;12.47;;
20456;SDS011;10387;51.102;6.848;2023-03-07T07:56:11;15.00;;;11.53;;
20456;SDS011;10387;51.102;6.848;2023-03-07T07:58:37;17.97;;;12.77;;
20456;SDS011;10387;51.102;6.848;2023-03-07T08:03:42;16.93;;;12.07;;
20456;SDS011;10387;51.102;6.848;2023-03-07T08:06:08;14.50;;;10.90;;
20456;SDS011;10387;51.102;6.848;2023-03-07T08:08:34;16.17;;;11.83;;
20456;SDS011;10387;51.102;6.848;2023-03-07T08:11:00;14.93;;;11.20;;
20456;SDS011;10387;51.102;6.848;2023-03-07T08:13:25;17.63;;;12.03;;
20456;SDS011;10387;51.102;6.848;2023-03-07T08:15:52;15.77;;;11.17;;
20456;SDS011;10387;51.102;6.848;2023-03-07T08:18:18;14.67;;;10.63;;
20456;SDS011;10387;51.102;6.848;2023-03-07T08:20:44;14.37;;;10.73;;
20456;SDS011;10387;51.102;6.848;2023-03-07T08:23:10;15.37;;;10.87;;
20456;SDS011;10387;51.102;6.848;2023-03-07T08:25:35;15.07;;;10.63;;
20456;SDS011;10387;51.102;6.848;2023-03-07T08:28:01;15.33;;;11.10;;
20456;SDS011;10387;51.102;6.848;2023-03-07T08:30:30;13.03;;;9.83;;
20456;SDS011;10387;51.102;6.848;2023-03-07T08:32:58;14.03;;;10.50;;
20456;SDS011;10387;51.102;6.848;2023-03-07T08:35:28;12.90;;;9.97;;
20456;SDS011;10387;51.102;6.848;2023-03-07T08:37:55;16.93;;;10.43;;
20456;SDS011;10387;51.102;6.848;2023-03-07T08:40:25;13.73;;;9.77;;
20456;SDS011;10387;51.102;6.848;2023-03-07T08:42:53;10.23;;;8.70;;
20456;SDS011;10387;51.102;6.848;2023-03-07T08:45:20;12.70;;;9.80;;
20456;SDS011;10387;51.102;6.848;2023-03-07T08:47:53;10.80;;;8.63;;
20456;SDS011;10387;51.102;6.848;2023-03-07T08:50:20;12.17;;;9.40;;
20456;SDS011;10387;51.102;6.848;2023-03-07T08:52:47;12.27;;;9.43;;
20456;SDS011;10387;51.102;6.848;2023-03-07T08:55:13;12.17;;;9.40;;
20456;SDS011;10387;51.102;6.848;2023-03-07T08:57:39;11.03;;;8.80;;
20456;SDS011;10387;51.102;6.848;2023-03-07T09:00:05;11.30;;;8.67;;
20456;SDS011;10387;51.102;6.848;2023-03-07T09:02:33;10.13;;;8.90;;
20456;SDS011;10387;51.102;6.848;2023-03-07T09:04:59;12.27;;;9.93;;
20456;SDS011;10387;51.102;6.848;2023-03-07T09:07:25;13.47;;;9.23;;
20456;SDS011;10387;51.102;6.848;2023-03-07T09:09:51;13.73;;;10.23;;
20456;SDS011;10387;51.102;6.848;2023-03-07T09:12:17;11.90;;;9.30;;
20456;SDS011;10387;51.102;6.848;2023-03-07T09:14:43;12.63;;;9.60;;
20456;SDS011;10387;51.102;6.848;2023-03-07T09:17:08;11.87;;;9.43;;
20456;SDS011;10387;51.102;6.848;2023-03-07T09:19:34;11.93;;;10.13;;
20456;SDS011;10387;51.102;6.848;2023-03-07T09:21:59;11.63;;;9.47;;
20456;SDS011;10387;51.102;6.848;2023-03-07T09:24:25;14.40;;;10.40;;
20456;SDS011;10387;51.102;6.848;2023-03-07T09:26:51;14.03;;;10.10;;
20456;SDS011;10387;51.102;6.848;2023-03-07T09:29:17;14.70;;;10.90;;
20456;SDS011;10387;51.102;6.848;2023-03-07T09:31:43;12.67;;;10.43;;
20456;SDS011;10387;51.102;6.848;2023-03-07T09:34:09;13.07;;;9.67;;
20456;SDS011;10387;51.102;6.848;2023-03-07T09:36:35;13.37;;;10.67;;
20456;SDS011;10387;51.102;6.848;2023-03-07T09:39:01;17.13;;;12.20;;
20456;SDS011;10387;51.102;6.848;2023-03-07T09:41:34;16.47;;;10.53;;
20456;SDS011;10387;51.102;6.848;2023-03-07T09:49:45;11.60;;;9.37;;
20456;SDS011;10387;51.102;6.848;2023-03-07T09:52:23;12.73;;;10.60;;
20456;SDS011;10387;51.102;6.848;2023-03-07T09:54:55;12.93;;;10.97;;
20456;SDS011;10387;51.102;6.848;2023-03-07T09:57:30;13.07;;;10.37;;
20456;SDS011;10387;51.102;6.848;2023-03-07T10:08:14;14.63;;;11.13;;
20456;SDS011;10387;51.102;6.848;2023-03-07T10:16:19;16.20;;;11.00;;
20456;SDS011;10387;51.102;6.848;2023-03-07T10:18:47;14.00;;;11.10;;
20456;SDS011;10387;51.102;6.848;2023-03-07T10:27:36;15.00;;;11.07;;
20456;SDS011;10387;51.102;6.848;2023-03-07T10:30:12;17.97;;;13.93;;
20456;SDS011;10387;51.102;6.848;2023-03-07T10:32:47;14.70;;;11.53;;
20456;SDS011;10387;51.102;6.848;2023-03-07T10:35:18;14.23;;;11.80;;
20456;SDS011;10387;51.102;6.848;2023-03-07T10:37:47;16.93;;;12.17;;
20456;SDS011;10387;51.102;6.848;2023-03-07T10:43:26;5.13;;;4.63;;
20456;SDS011;10387;51.102;6.848;2023-03-07T10:45:55;4.40;;;4.00;;
20456;SDS011;10387;51.102;6.848;2023-03-07T10:48:26;5.87;;;4.70;;
20456;SDS011;10387;51.102;6.848;2023-03-07T10:51:04;5.93;;;4.17;;
20456;SDS011;10387;51.102;6.848;2023-03-07T10:53:40;4.40;;;3.70;;
20456;SDS011;10387;51.102;6.848;2023-03-07T10:56:17;6.13;;;4.00;;
20456;SDS011;10387;51.102;6.848;2023-03-07T11:01:56;5.73;;;4.33;;
20456;SDS011;10387;51.102;6.848;2023-03-07T11:04:24;5.20;;;4.70;;
20456;SDS011;10387;51.102;6.848;2023-03-07T11:06:53;4.97;;;4.13;;
20456;SDS011;10387;51.102;6.848;2023-03-07T11:09:29;4.50;;;3.57;;
20456;SDS011;10387;51.102;6.848;2023-03-07T11:14:51;5.20;;;4.07;;
20456;SDS011;10387;51.102;6.848;2023-03-07T11:17:22;5.27;;;4.20;;
20456;SDS011;10387;51.102;6.848;2023-03-07T11:20:03;5.13;;;3.80;;
20456;SDS011;10387;51.102;6.848;2023-03-07T11:22:50;4.40;;;3.50;;
20456;SDS011;10387;51.102;6.848;2023-03-07T11:25:42;6.73;;;4.50;;
20456;SDS011;10387;51.102;6.848;2023-03-07T11:31:03;5.83;;;4.50;;
20456;SDS011;10387;51.102;6.848;2023-03-07T11:36:35;4.97;;;4.10;;
20456;SDS011;10387;51.102;6.848;2023-03-07T11:39:00;4.57;;;4.07;;
20456;SDS011;10387;51.102;6.848;2023-03-07T11:41:33;5.20;;;4.13;;
20456;SDS011;10387;51.102;6.848;2023-03-07T11:49:25;3.57;;;3.27;;
20456;SDS011;10387;51.102;6.848;2023-03-07T11:52:30;4.93;;;4.13;;
20456;SDS011;10387;51.102;6.848;2023-03-07T11:58:02;4.80;;;4.23;;
20456;SDS011;10387;51.102;6.848;2023-03-07T12:14:31;5.67;;;4.23;;
20456;SDS011;10387;51.102;6.848;2023-03-07T12:17:14;4.67;;;4.17;;
20456;SDS011;10387;51.102;6.848;2023-03-07T12:20:06;5.40;;;4.60;;
20456;SDS011;10387;51.102;6.848;2023-03-07T12:23:00;4.70;;;4.30;;
20456;SDS011;10387;51.102;6.848;2023-03-07T12:25:35;4.90;;;4.50;;
20456;SDS011;10387;51.102;6.848;2023-03-07T12:30:58;6.97;;;5.53;;
20456;SDS011;10387;51.102;6.848;2023-03-07T12:44:06;9.00;;;7.57;;
20456;SDS011;10387;51.102;6.848;2023-03-07T12:49:36;14.27;;;11.63;;
20456;SDS011;10387;51.102;6.848;2023-03-07T12:52:04;22.47;;;14.60;;
20456;SDS011;10387;51.102;6.848;2023-03-07T12:54:36;13.07;;;9.67;;
20456;SDS011;10387;51.102;6.848;2023-03-07T12:57:21;11.30;;;8.40;;
20456;SDS011;10387;51.102;6.848;2023-03-07T12:59:56;10.77;;;8.67;;
20456;SDS011;10387;51.102;6.848;2023-03-07T13:02:29;19.00;;;14.73;;
20456;SDS011;10387;51.102;6.848;2023-03-07T13:04:57;12.93;;;9.30;;
20456;SDS011;10387;51.102;6.848;2023-03-07T13:07:27;16.77;;;13.57;;
20456;SDS011;10387;51.102;6.848;2023-03-07T13:09:58;14.63;;;11.67;;
20456;SDS011;10387;51.102;6.848;2023-03-07T13:14:58;13.10;;;9.90;;
20456;SDS011;10387;51.102;6.848;2023-03-07T13:27:54;14.53;;;9.37;;
20456;SDS011;10387;51.102;6.848;2023-03-07T13:30:25;15.20;;;9.13;;
20456;SDS011;10387;51.102;6.848;2023-03-07T13:32:56;12.07;;;9.57;;
20456;SDS011;10387;51.102;6.848;2023-03-07T13:37:56;11.17;;;9.33;;
20456;SDS011;10387;51.102;6.848;2023-03-07T13:43:00;9.83;;;8.03;;
20456;SDS011;10387;51.102;6.848;2023-03-07T13:48:06;8.63;;;7.70;;
20456;SDS011;10387;51.102;6.848;2023-03-07T13:53:14;12.07;;;8.43;;
20456;SDS011;10387;51.102;6.848;2023-03-07T13:58:46;10.00;;;8.00;;
20456;SDS011;10387;51.102;6.848;2023-03-07T14:01:21;10.13;;;8.57;;
20456;SDS011;10387;51.102;6.848;2023-03-07T14:03:54;11.50;;;8.63;;
20456;SDS011;10387;51.102;6.848;2023-03-07T14:06:37;13.00;;;10.27;;
20456;SDS011;10387;51.102;6.848;2023-03-07T14:09:11;8.83;;;7.40;;
20456;SDS011;10387;51.102;6.848;2023-03-07T14:20:37;12.50;;;10.43;;
20456;SDS011;10387;51.102;6.848;2023-03-07T14:26:08;13.27;;;9.77;;
20456;SDS011;10387;51.102;6.848;2023-03-07T14:28:46;13.50;;;10.43;;
20456;SDS011;10387;51.102;6.848;2023-03-07T14:31:24;14.93;;;11.77;;
20456;SDS011;10387;51.102;6.848;2023-03-07T14:33:52;15.83;;;13.00;;
20456;SDS011;10387;51.102;6.848;2023-03-07T14:36:19;14.13;;;10.67;;
20456;SDS011;10387;51.102;6.848;2023-03-07T14:38:51;24.03;;;21.43;;
20456;SDS011;10387;51.102;6.848;2023-03-07T14:47:07;14.30;;;10.70;;
20456;SDS011;10387;51.102;6.848;2023-03-07T14:49:54;15.60;;;11.03;;
20456;SDS011;10387;51.102;6.848;2023-03-07T14:52:29;15.00;;;10.40;;
20456;SDS011;10387;51.102;6.848;2023-03-07T14:54:56;14.10;;;10.10;;
20456;SDS011;10387;51.102;6.848;2023-03-07T14:57:38;13.23;;;10.23;;
20456;SDS011;10387;51.102;6.848;2023-03-07T15:02:55;13.67;;;10.90;;
20456;SDS011;10387;51.102;6.848;2023-03-07T15:05:32;18.10;;;16.03;;
20456;SDS011;10387;51.102;6.848;2023-03-07T15:08:26;11.93;;;9.80;;
20456;SDS011;10387;51.102;6.848;2023-03-07T15:16:58;11.73;;;8.93;;
20456;SDS011;10387;51.102;6.848;2023-03-07T15:21:37;10.40;;;8.53;;
20456;SDS011;10387;51.102;6.848;2023-03-07T15:24:13;10.70;;;9.07;;
20456;SDS011;10387;51.102;6.848;2023-03-07T15:26:47;15.20;;;11.63;;
20456;SDS011;10387;51.102;6.848;2023-03-07T15:29:19;18.10;;;15.87;;
20456;SDS011;10387;51.102;6.848;2023-03-07T15:31:48;15.80;;;13.60;;
20456;SDS011;10387;51.102;6.848;2023-03-07T15:34:22;17.13;;;12.07;;
20456;SDS011;10387;51.102;6.848;2023-03-07T15:36:50;23.23;;;14.53;;
20456;SDS011;10387;51.102;6.848;2023-03-07T15:39:24;25.80;;;20.67;;
20456;SDS011;10387;51.102;6.848;2023-03-07T15:41:57;20.33;;;15.10;;
20456;SDS011;10387;51.102;6.848;2023-03-07T15:44:43;14.33;;;11.13;;
20456;SDS011;10387;51.102;6.848;2023-03-07T15:47:20;14.83;;;12.13;;
20456;SDS011;10387;51.102;6.848;2023-03-07T15:49:48;13.50;;;10.87;;
20456;SDS011;10387;51.102;6.848;2023-03-07T15:52:36;12.57;;;11.03;;
20456;SDS011;10387;51.102;6.848;2023-03-07T15:55:03;12.60;;;10.53;;
20456;SDS011;10387;51.102;6.848;2023-03-07T15:57:57;13.93;;;11.07;;
20456;SDS011;10387;51.102;6.848;2023-03-07T16:00:31;13.33;;;10.83;;
20456;SDS011;10387;51.102;6.848;2023-03-07T16:05:50;11.10;;;9.17;;
20456;SDS011;10387;51.102;6.848;2023-03-07T16:08:18;13.30;;;9.47;;
20456;SDS011;10387;51.102;6.848;2023-03-07T16:10:51;20.43;;;15.43;;
20456;SDS011;10387;51.102;6.848;2023-03-07T16:13:27;24.27;;;18.67;;
20456;SDS011;10387;51.102;6.848;2023-03-07T16:15:58;19.53;;;15.97;;
20456;SDS011;10387;51.102;6.848;2023-03-07T16:18:25;14.87;;;11.93;;
20456;SDS011;10387;51.102;6.848;2023-03-07T16:20:53;13.30;;;11.20;;
20456;SDS011;10387;51.102;6.848;2023-03-07T16:23:19;13.57;;;12.10;;
20456;SDS011;10387;51.102;6.848;2023-03-07T16:25:45;18.47;;;16.07;;
20456;SDS011;10387;51.102;6.848;2023-03-07T16:28:11;17.90;;;14.30;;
20456;SDS011;10387;51.102;6.848;2023-03-07T16:30:37;13.37;;;10.97;;
20456;SDS011;10387;51.102;6.848;2023-03-07T16:33:09;11.70;;;8.83;;
20456;SDS011;10387;51.102;6.848;2023-03-07T16:35:37;10.97;;;9.47;;
20456;SDS011;10387;51.102;6.848;2023-03-07T16:38:03;14.43;;;12.90;;
20456;SDS011;10387;51.102;6.848;2023-03-07T16:40:30;13.90;;;12.37;;
20456;SDS011;10387;51.102;6.848;2023-03-07T16:42:56;13.07;;;11.53;;
20456;SDS011;10387;51.102;6.848;2023-03-07T16:45:23;13.73;;;12.23;;
20456;SDS011;10387;51.102;6.848;2023-03-07T16:47:57;10.87;;;9.40;;
20456;SDS011;10387;51.102;6.848;2023-03-07T16:50:25;11.23;;;8.93;;
20456;SDS011;10387;51.102;6.848;2023-03-07T16:52:52;11.27;;;9.30;;
20456;SDS011;10387;51.102;6.848;2023-03-07T16:55:18;12.80;;;9.63;;
20456;SDS011;10387;51.102;6.848;2023-03-07T16:57:45;12.87;;;9.60;;
20456;SDS011;10387;51.102;6.848;2023-03-07T17:00:17;13.80;;;9.63;;
20456;SDS011;10387;51.102;6.848;2023-03-07T17:02:48;16.67;;;11.47;;
20456;SDS011;10387;51.102;6.848;2023-03-07T17:05:17;17.57;;;12.90;;
20456;SDS011;10387;51.102;6.848;2023-03-07T17:07:44;18.40;;;12.97;;
20456;SDS011;10387;51.102;6.848;2023-03-07T17:10:10;16.83;;;11.17;;